createdAt,value
2018-05-08T00:01:52.306Z,48.70
2018-05-08T00:04:19.847Z,48.94
2018-05-08T00:06:47.372Z,48.64
2018-05-08T00:09:14.906Z,48.86
2018-05-08T00:11:42.461Z,49.38
2018-05-08T00:14:10.063Z,49.18
2018-05-08T00:16:37.609Z,49.23
2018-05-08T00:19:05.171Z,49.29
2018-05-08T00:21:32.943Z,49.40
2018-05-08T00:24:00.468Z,49.34
2018-05-08T00:26:28.018Z,49.35
2018-05-08T00:28:55.549Z,49.45
2018-05-08T00:31:23.117Z,49.83
2018-05-08T00:33:50.669Z,49.80
2018-05-08T00:36:18.186Z,49.60
2018-05-08T00:38:45.709Z,49.66
2018-05-08T00:41:13.214Z,49.63
2018-05-08T00:43:40.725Z,49.70
2018-05-08T00:46:08.293Z,49.69
2018-05-08T00:48:35.846Z,49.39
2018-05-08T00:51:03.424Z,49.23
2018-05-08T00:53:30.998Z,49.57
2018-05-08T00:55:58.779Z,49.59
2018-05-08T00:58:26.312Z,49.68
2018-05-08T01:00:53.841Z,49.50
2018-05-08T01:03:21.373Z,49.47
2018-05-08T01:05:48.911Z,49.56
2018-05-08T01:08:16.447Z,49.64
2018-05-08T01:10:43.967Z,49.67
2018-05-08T01:13:11.507Z,49.49
2018-05-08T01:15:39.294Z,49.43
2018-05-08T01:18:06.854Z,49.22
2018-05-08T01:20:34.360Z,49.35
2018-05-08T01:23:01.884Z,49.30
2018-05-08T01:25:29.706Z,49.31
2018-05-08T01:27:57.253Z,49.29
2018-05-08T01:30:24.765Z,49.37
2018-05-08T01:32:52.280Z,49.23
2018-05-08T01:35:19.785Z,49.55
2018-05-08T01:37:47.387Z,49.60
2018-05-08T01:40:15.170Z,49.76
2018-05-08T01:42:42.696Z,49.81
2018-05-08T01:45:10.276Z,49.70
2018-05-08T01:47:37.785Z,49.99
2018-05-08T01:50:05.356Z,50.02
2018-05-08T01:52:32.878Z,50.01
2018-05-08T01:55:00.450Z,50.08
2018-05-08T01:57:27.966Z,50.15
2018-05-08T01:59:55.537Z,50.35
2018-05-08T02:02:23.076Z,50.45
2018-05-08T02:04:50.672Z,50.42
2018-05-08T02:07:18.200Z,50.62
2018-05-08T02:09:45.769Z,50.74
2018-05-08T02:12:13.327Z,51.01
2018-05-08T02:14:40.920Z,51.10
2018-05-08T02:17:08.439Z,51.32
2018-05-08T02:19:35.986Z,51.21
2018-05-08T02:22:03.528Z,51.32
2018-05-08T02:24:31.100Z,51.40
2018-05-08T02:27:00.701Z,51.49
2018-05-08T02:29:28.236Z,51.53
2018-05-08T02:31:55.775Z,51.32
2018-05-08T02:34:23.320Z,51.58
2018-05-08T02:36:51.132Z,51.70
2018-05-08T02:39:18.758Z,51.85
2018-05-08T02:41:46.292Z,51.91
2018-05-08T02:44:13.837Z,52.31
2018-05-08T02:46:41.359Z,52.47
2018-05-08T02:49:09.125Z,52.41
2018-05-08T02:51:36.657Z,52.43
2018-05-08T02:54:04.214Z,52.56
2018-05-08T02:56:31.723Z,52.46
2018-05-08T02:58:59.251Z,52.37
2018-05-08T03:01:26.770Z,52.47
2018-05-08T03:03:54.289Z,52.55
2018-05-08T03:06:21.807Z,52.35
2018-05-08T03:08:49.359Z,52.50
2018-05-08T03:11:16.872Z,52.60
2018-05-08T03:13:44.407Z,52.72
2018-05-08T03:16:11.926Z,52.80
2018-05-08T03:18:39.749Z,53.02
2018-05-08T03:21:07.334Z,53.18
2018-05-08T03:23:34.845Z,53.38
2018-05-08T03:26:02.396Z,53.37
2018-05-08T03:28:29.897Z,53.21
2018-05-08T03:30:57.660Z,53.17
2018-05-08T03:33:25.169Z,53.11
2018-05-08T03:35:52.696Z,53.24
2018-05-08T03:38:20.544Z,53.28
2018-05-08T03:40:48.083Z,53.47
2018-05-08T03:43:15.625Z,53.44
2018-05-08T03:45:43.180Z,53.69
2018-05-08T03:48:10.998Z,53.70
2018-05-08T03:50:38.530Z,53.62
2018-05-08T03:53:06.091Z,53.58
2018-05-08T03:55:33.613Z,53.59
2018-05-08T03:58:01.133Z,53.67
2018-05-08T04:00:40.716Z,53.82
2018-05-08T04:03:20.214Z,53.89
2018-05-08T04:06:11.177Z,53.78
2018-05-08T04:08:38.695Z,53.99
2018-05-08T04:11:06.232Z,54.02
2018-05-08T04:13:34.012Z,54.23
2018-05-08T04:16:01.843Z,54.29
2018-05-08T04:18:29.427Z,54.08
2018-05-08T04:20:56.956Z,54.12
2018-05-08T04:23:24.508Z,53.80
2018-05-08T04:25:52.088Z,53.69
2018-05-08T04:28:19.604Z,54.05
2018-05-08T04:30:47.138Z,54.06
2018-05-08T04:33:14.766Z,53.75
2018-05-08T04:35:42.595Z,53.97
2018-05-08T04:38:10.114Z,54.00
2018-05-08T04:40:37.651Z,54.06
2018-05-08T04:43:05.174Z,54.08
2018-05-08T04:45:32.709Z,54.14
2018-05-08T04:48:00.222Z,54.47
2018-05-08T04:50:27.762Z,54.59
2018-05-08T04:52:55.295Z,54.61
2018-05-08T04:55:23.161Z,54.68
2018-05-08T04:57:50.741Z,54.80
2018-05-08T05:00:18.281Z,54.73
2018-05-08T05:02:45.838Z,54.67
2018-05-08T05:05:13.335Z,54.38
2018-05-08T05:07:41.172Z,54.67
2018-05-08T05:10:09.035Z,54.72
2018-05-08T05:12:36.597Z,54.67
2018-05-08T05:15:04.466Z,54.70
2018-05-08T05:17:32.016Z,54.95
2018-05-08T05:19:59.561Z,54.51
2018-05-08T05:22:27.071Z,54.48
2018-05-08T05:24:54.669Z,54.44
2018-05-08T05:27:22.200Z,54.20
2018-05-08T05:29:49.732Z,54.01
2018-05-08T05:32:17.600Z,54.05
2018-05-08T05:34:45.116Z,54.21
2018-05-08T05:37:12.918Z,54.30
2018-05-08T05:39:40.419Z,54.28
2018-05-08T05:42:07.962Z,54.29
2018-05-08T05:44:35.482Z,54.19
2018-05-08T05:47:03.046Z,54.43
2018-05-08T05:49:30.566Z,54.81
2018-05-08T05:51:58.095Z,54.55
2018-05-08T05:54:25.606Z,55.18
2018-05-08T05:56:53.175Z,54.44
2018-05-08T05:59:20.678Z,54.22
2018-05-08T06:01:48.303Z,53.93
2018-05-08T06:04:16.090Z,54.52
2018-05-08T06:06:43.600Z,53.95
2018-05-08T06:09:11.117Z,53.89
2018-05-08T06:11:38.631Z,54.41
2018-05-08T06:14:06.208Z,54.25
2018-05-08T06:16:34.107Z,54.04
2018-05-08T06:19:01.609Z,53.22
2018-05-08T06:21:29.272Z,53.32
2018-05-08T06:23:56.870Z,51.98
2018-05-08T06:26:24.439Z,51.76
2018-05-08T06:28:51.996Z,50.95
2018-05-08T06:31:19.539Z,49.51
2018-05-08T06:33:47.046Z,48.01
2018-05-08T06:36:14.890Z,47.62
2018-05-08T06:38:42.502Z,46.46
2018-05-08T06:41:10.349Z,45.92
2018-05-08T06:43:38.093Z,45.94
2018-05-08T06:46:06.595Z,44.93
2018-05-08T06:48:34.099Z,44.42
2018-05-08T06:51:01.636Z,43.76
2018-05-08T06:53:29.171Z,43.19
2018-05-08T06:55:56.703Z,42.69
2018-05-08T06:58:24.206Z,42.11
2018-05-08T07:00:52.137Z,41.80
2018-05-08T07:03:19.639Z,42.42
2018-05-08T07:05:47.165Z,41.16
2018-05-08T07:08:14.669Z,40.61
2018-05-08T07:10:42.180Z,40.33
2018-05-08T07:13:09.944Z,40.49
2018-05-08T07:15:37.847Z,40.38
2018-05-08T07:18:05.411Z,40.00
2018-05-08T07:20:33.138Z,39.80
2018-05-08T07:23:00.676Z,40.51
2018-05-08T07:25:28.196Z,40.57
2018-05-08T07:27:56.022Z,40.13
2018-05-08T07:30:23.525Z,40.23
2018-05-08T07:32:51.083Z,40.69
2018-05-08T07:35:19.011Z,40.80
2018-05-08T07:37:46.555Z,41.05
2018-05-08T07:40:14.049Z,40.76
2018-05-08T07:42:41.579Z,40.99
2018-05-08T07:45:09.125Z,41.53
2018-05-08T07:47:36.915Z,41.79
2018-05-08T07:50:04.427Z,41.79
2018-05-08T07:52:31.956Z,41.33
2018-05-08T07:54:59.733Z,42.22
2018-05-08T07:57:27.249Z,41.35
2018-05-08T07:59:55.075Z,40.45
2018-05-08T08:02:22.605Z,40.56
2018-05-08T08:04:50.136Z,39.49
2018-05-08T08:07:17.686Z,39.37
2018-05-08T08:09:45.204Z,37.47
2018-05-08T08:12:12.744Z,37.20
2018-05-08T08:14:40.268Z,36.72
2018-05-08T08:17:07.795Z,34.04
2018-05-08T08:19:35.493Z,33.39
2018-05-08T08:22:03.036Z,32.66
2018-05-08T08:24:30.562Z,30.75
2018-05-08T08:26:58.163Z,30.32
2018-05-08T08:29:26.367Z,29.55
2018-05-08T08:31:53.897Z,29.50
2018-05-08T08:34:21.409Z,29.07
2018-05-08T08:36:48.950Z,28.01
2018-05-08T08:39:16.483Z,27.82
2018-05-08T08:41:44.005Z,25.44
2018-05-08T08:44:11.511Z,25.99
2018-05-08T08:46:39.121Z,27.55
2018-05-08T08:49:06.955Z,27.81
2018-05-08T08:51:34.456Z,28.66
2018-05-08T08:54:01.974Z,28.59
2018-05-08T08:56:29.501Z,27.75
2018-05-08T08:58:57.039Z,27.97
2018-05-08T09:01:24.553Z,27.71
2018-05-08T09:03:52.095Z,26.70
2018-05-08T09:06:19.628Z,27.59
2018-05-08T09:08:47.163Z,28.16
2018-05-08T09:11:15.016Z,27.65
2018-05-08T09:13:42.624Z,26.85
2018-05-08T09:16:10.146Z,27.23
2018-05-08T09:18:38.274Z,26.59
2018-05-08T09:21:05.788Z,27.09
2018-05-08T09:23:33.731Z,25.68
2018-05-08T09:26:01.247Z,24.97
2018-05-08T09:28:28.786Z,27.43
2018-05-08T09:30:56.283Z,25.69
2018-05-08T09:33:23.818Z,27.64
2018-05-08T09:35:51.638Z,27.42
2018-05-08T09:38:19.175Z,26.97
2018-05-08T09:40:46.685Z,27.96
2018-05-08T09:43:14.224Z,30.33
2018-05-08T09:45:41.732Z,29.42
2018-05-08T09:48:09.255Z,27.98
2018-05-08T09:50:36.762Z,28.28
2018-05-08T09:53:04.567Z,29.42
2018-05-08T09:55:32.078Z,28.50
2018-05-08T09:57:59.597Z,29.46
2018-05-08T10:00:27.135Z,28.49
2018-05-08T10:02:54.646Z,30.47
2018-05-08T10:05:22.178Z,28.95
2018-05-08T10:07:49.712Z,29.60
2018-05-08T10:10:17.494Z,29.40
2018-05-08T10:12:45.017Z,29.69
2018-05-08T10:15:12.539Z,29.01
2018-05-08T10:17:40.083Z,28.95
2018-05-08T10:20:07.620Z,28.04
2018-05-08T10:22:35.202Z,29.59
2018-05-08T10:25:02.726Z,27.13
2018-05-08T10:27:30.269Z,28.81
2018-05-08T10:29:57.782Z,25.39
2018-05-08T10:32:25.290Z,24.67
2018-05-08T10:34:52.832Z,24.93
2018-05-08T10:37:20.436Z,23.74
2018-05-08T10:39:47.972Z,24.44
2018-05-08T10:42:15.496Z,25.42
2018-05-08T10:44:43.024Z,25.50
2018-05-08T10:47:10.637Z,23.99
2018-05-08T10:49:38.227Z,25.05
2018-05-08T10:52:06.024Z,24.51
2018-05-08T10:54:33.551Z,23.93
2018-05-08T10:57:01.090Z,24.19
2018-05-08T10:59:28.611Z,24.74
2018-05-08T11:01:56.125Z,25.41
2018-05-08T11:04:23.658Z,25.60
2018-05-08T11:06:51.172Z,25.29
2018-05-08T11:09:18.714Z,25.92
2018-05-08T11:11:46.230Z,26.56
2018-05-08T11:14:13.776Z,25.60
2018-05-08T11:16:41.293Z,24.73
2018-05-08T11:19:08.895Z,24.73
2018-05-08T11:21:36.418Z,24.63
2018-05-08T11:24:03.962Z,23.86
2018-05-08T11:26:31.848Z,24.33
2018-05-08T11:28:59.329Z,23.79
2018-05-08T11:31:27.194Z,23.67
2018-05-08T11:33:54.716Z,22.90
2018-05-08T11:36:22.231Z,22.81
2018-05-08T11:38:49.746Z,23.17
2018-05-08T11:41:17.246Z,22.91
2018-05-08T11:43:44.843Z,22.82
2018-05-08T11:46:12.355Z,22.50
2018-05-08T11:48:40.229Z,21.38
2018-05-08T11:51:07.745Z,19.84
2018-05-08T11:53:35.330Z,18.19
2018-05-08T11:56:02.841Z,16.21
2018-05-08T11:58:30.363Z,14.98
2018-05-08T12:00:57.945Z,13.80
2018-05-08T12:03:25.465Z,13.75
2018-05-08T12:05:53.040Z,13.59
2018-05-08T12:08:20.578Z,12.11
2018-05-08T12:10:48.096Z,11.05
2018-05-08T12:13:15.626Z,9.99
2018-05-08T12:15:43.177Z,10.49
2018-05-08T12:18:10.969Z,9.98
2018-05-08T12:20:38.518Z,10.30
2018-05-08T12:23:06.025Z,10.30
2018-05-08T12:25:33.563Z,10.20
2018-05-08T12:28:01.076Z,9.25
2018-05-08T12:30:28.654Z,9.16
2018-05-08T12:32:57.004Z,9.35
2018-05-08T12:35:24.541Z,9.37
2018-05-08T12:37:52.043Z,9.46
2018-05-08T12:40:19.627Z,9.57
2018-05-08T12:42:47.163Z,9.53
2018-05-08T12:45:14.699Z,10.36
2018-05-08T12:47:42.219Z,9.86
2018-05-08T12:50:09.734Z,9.41
2018-05-08T12:52:37.242Z,10.01
2018-05-08T12:55:04.775Z,10.03
2018-05-08T12:57:32.279Z,9.48
2018-05-08T12:59:59.797Z,9.17
2018-05-08T13:02:27.291Z,8.76
2018-05-08T13:04:55.359Z,8.74
2018-05-08T13:07:22.883Z,9.44
2018-05-08T13:09:50.445Z,9.13
2018-05-08T13:12:19.165Z,9.04
2018-05-08T13:14:46.818Z,9.02
2018-05-08T13:17:14.783Z,9.11
2018-05-08T13:19:42.287Z,9.31
2018-05-08T13:22:09.789Z,9.35
2018-05-08T13:24:37.306Z,8.90
2018-05-08T13:27:04.806Z,8.88
2018-05-08T13:29:32.386Z,8.77
2018-05-08T13:32:00.141Z,8.75
2018-05-08T13:34:28.000Z,8.26
2018-05-08T13:36:55.540Z,8.47
2018-05-08T13:39:23.046Z,8.54
2018-05-08T13:41:50.631Z,8.70
2018-05-08T13:44:18.550Z,8.37
2018-05-08T13:46:46.034Z,8.00
2018-05-08T13:49:13.558Z,8.21
2018-05-08T13:51:41.088Z,8.74
2018-05-08T13:54:08.707Z,8.86
2018-05-08T13:56:36.211Z,9.56
2018-05-08T13:59:03.732Z,10.11
2018-05-08T14:01:31.495Z,9.67
2018-05-08T14:03:59.114Z,9.69
2018-05-08T14:06:26.733Z,9.69
2018-05-08T14:08:54.470Z,10.01
2018-05-08T14:11:22.004Z,9.97
2018-05-08T14:13:49.584Z,10.26
2018-05-08T14:16:17.131Z,10.67
2018-05-08T14:18:44.976Z,10.26
2018-05-08T14:21:12.924Z,10.75
2018-05-08T14:23:40.486Z,10.98
2018-05-08T14:26:08.033Z,10.88
2018-05-08T14:28:35.541Z,11.96
2018-05-08T14:31:03.748Z,11.88
2018-05-08T14:33:31.281Z,12.73
2018-05-08T14:35:58.824Z,14.18
2018-05-08T14:38:26.654Z,14.34
2018-05-08T14:40:54.272Z,15.54
2018-05-08T14:43:21.797Z,16.39
2018-05-08T14:45:49.720Z,16.55
2018-05-08T14:48:17.358Z,16.90
2018-05-08T14:50:44.973Z,17.73
2018-05-08T14:53:13.461Z,17.94
2018-05-08T14:55:41.334Z,18.61
2018-05-08T14:58:08.835Z,19.24
2018-05-08T15:00:36.366Z,19.72
2018-05-08T15:03:04.176Z,20.01
2018-05-08T15:05:31.717Z,21.09
2018-05-08T15:07:59.236Z,21.52
2018-05-08T15:10:27.062Z,21.90
2018-05-08T15:12:54.566Z,22.20
2018-05-08T15:15:22.490Z,22.46
2018-05-08T15:17:50.258Z,23.09
2018-05-08T15:20:17.778Z,23.24
2018-05-08T15:22:46.951Z,23.38
2018-05-08T15:25:14.522Z,23.52
2018-05-08T15:27:42.046Z,23.77
2018-05-08T15:30:10.000Z,23.67
2018-05-08T15:32:37.770Z,24.08
2018-05-08T15:35:05.327Z,24.00
2018-05-08T15:37:32.881Z,23.93
2018-05-08T15:40:00.571Z,23.99
2018-05-08T15:42:28.141Z,24.64
2018-05-08T15:44:56.588Z,23.76
2018-05-08T15:47:24.178Z,24.09
2018-05-08T15:49:51.683Z,24.46
2018-05-08T15:52:19.266Z,23.84
2018-05-08T15:54:46.774Z,24.73
2018-05-08T15:57:14.298Z,24.62
2018-05-08T15:59:41.815Z,24.86
2018-05-08T16:02:09.670Z,24.96
2018-05-08T16:04:37.215Z,24.90
2018-05-08T16:07:05.056Z,24.69
2018-05-08T16:09:32.635Z,24.94
2018-05-08T16:12:00.225Z,24.64
2018-05-08T16:14:27.782Z,25.16
2018-05-08T16:16:55.379Z,25.12
2018-05-08T16:19:22.933Z,25.11
2018-05-08T16:21:50.496Z,25.47
2018-05-08T16:24:18.283Z,25.45
2018-05-08T16:26:45.862Z,25.30
2018-05-08T16:29:13.615Z,25.28
2018-05-08T16:31:41.170Z,24.99
2018-05-08T16:34:08.724Z,25.44
2018-05-08T16:36:36.261Z,26.45
2018-05-08T16:39:03.802Z,25.40
2018-05-08T16:41:31.349Z,26.01
2018-05-08T16:43:58.914Z,25.66
2018-05-08T16:46:26.469Z,25.85
2018-05-08T16:48:54.017Z,25.94
2018-05-08T16:51:21.870Z,25.78
2018-05-08T16:53:49.428Z,26.06
2018-05-08T16:56:16.976Z,25.97
2018-05-08T16:58:44.490Z,26.17
2018-05-08T17:01:12.035Z,26.29
2018-05-08T17:03:39.643Z,26.35
2018-05-08T17:06:07.220Z,26.41
2018-05-08T17:08:34.745Z,26.33
2018-05-08T17:11:02.274Z,26.43
2018-05-08T17:13:29.802Z,26.71
2018-05-08T17:15:57.338Z,26.57
2018-05-08T17:18:24.898Z,26.69
2018-05-08T17:20:52.484Z,26.88
2018-05-08T17:23:20.013Z,27.01
2018-05-08T17:25:47.525Z,27.15
2018-05-08T17:28:15.073Z,27.21
2018-05-08T17:30:42.647Z,27.33
2018-05-08T17:33:10.170Z,27.09
2018-05-08T17:35:37.795Z,27.47
2018-05-08T17:38:05.326Z,27.56
2018-05-08T17:40:33.230Z,27.74
2018-05-08T17:43:01.051Z,27.91
2018-05-08T17:45:28.573Z,28.08
2018-05-08T17:47:56.105Z,28.23
2018-05-08T17:50:23.628Z,27.82
2018-05-08T17:52:51.215Z,28.04
2018-05-08T17:55:18.731Z,28.26
2018-05-08T17:57:46.259Z,28.54
2018-05-08T18:00:13.773Z,28.93
2018-05-08T18:02:41.328Z,28.88
2018-05-08T18:05:08.864Z,28.77
2018-05-08T18:07:36.545Z,28.67
2018-05-08T18:10:04.399Z,28.68
2018-05-08T18:12:31.990Z,28.74
2018-05-08T18:14:59.514Z,28.81
2018-05-08T18:17:27.183Z,29.11
2018-05-08T18:19:54.706Z,29.04
2018-05-08T18:22:22.256Z,29.12
2018-05-08T18:24:49.840Z,29.33
2018-05-08T18:27:17.390Z,29.22
2018-05-08T18:29:44.903Z,29.35
2018-05-08T18:32:12.805Z,29.34
2018-05-08T18:34:40.385Z,29.44
2018-05-08T18:37:07.962Z,29.57
2018-05-08T18:39:35.523Z,29.61
2018-05-08T18:42:03.140Z,29.82
2018-05-08T18:44:30.806Z,29.98
2018-05-08T18:46:58.351Z,30.29
2018-05-08T18:49:25.969Z,30.28
2018-05-08T18:51:53.438Z,30.52
2018-05-08T18:54:20.949Z,30.74
2018-05-08T18:56:48.470Z,31.02
2018-05-08T18:59:16.017Z,31.15
2018-05-08T19:01:43.550Z,31.26
2018-05-08T19:04:11.230Z,31.52
2018-05-08T19:06:38.769Z,31.30
2018-05-08T19:09:06.415Z,31.40
2018-05-08T19:11:39.911Z,31.46
2018-05-08T19:14:07.493Z,31.57
2018-05-08T19:16:35.054Z,31.61
2018-05-08T19:19:08.269Z,32.23
2018-05-08T19:21:35.817Z,32.20
2018-05-08T19:24:08.944Z,32.80
2018-05-08T19:26:36.640Z,33.18
2018-05-08T19:29:09.662Z,32.70
2018-05-08T19:31:37.248Z,32.40
2018-05-08T19:34:04.790Z,32.22
2018-05-08T19:36:37.928Z,32.29
2018-05-08T19:39:06.571Z,32.20
2018-05-08T19:41:34.547Z,32.30
2018-05-08T19:44:02.141Z,32.36
2018-05-08T19:46:29.695Z,32.48
2018-05-08T19:48:57.227Z,32.52
2018-05-08T19:51:24.768Z,32.76
2018-05-08T19:53:52.329Z,32.94
2018-05-08T19:56:19.896Z,33.36
2018-05-08T19:58:47.610Z,33.50
2018-05-08T20:01:16.994Z,33.60
2018-05-08T20:03:44.560Z,33.75
2018-05-08T20:06:12.306Z,34.04
2018-05-08T20:08:39.840Z,33.87
2018-05-08T20:11:07.404Z,33.91
2018-05-08T20:13:34.982Z,33.94
2018-05-08T20:16:03.536Z,34.15
2018-05-08T20:18:32.765Z,34.08
2018-05-08T20:21:00.323Z,34.23
2018-05-08T20:23:27.934Z,34.29
2018-05-08T20:25:56.578Z,34.53
2018-05-08T20:28:24.337Z,34.69
2018-05-08T20:30:51.902Z,34.82
2018-05-08T20:33:19.660Z,34.94
2018-05-08T20:35:47.612Z,35.07
2018-05-08T20:38:15.176Z,35.07
2018-05-08T20:40:42.795Z,35.31
2018-05-08T20:43:10.411Z,35.36
2018-05-08T20:45:37.938Z,35.50
2018-05-08T20:48:05.457Z,35.51
2018-05-08T20:50:33.069Z,35.59
2018-05-08T20:53:00.578Z,35.78
2018-05-08T20:55:28.267Z,35.73
2018-05-08T20:57:55.763Z,35.82
2018-05-08T21:00:23.923Z,35.98
2018-05-08T21:02:53.912Z,35.85
2018-05-08T21:05:21.445Z,35.86
2018-05-08T21:07:49.239Z,36.04
2018-05-08T21:10:18.946Z,36.10
2018-05-08T21:12:48.467Z,36.18
2018-05-08T21:15:16.025Z,36.13
2018-05-08T21:17:43.901Z,36.35
2018-05-08T21:20:11.482Z,36.36
2018-05-08T21:22:39.244Z,36.52
2018-05-08T21:25:07.026Z,36.53
2018-05-08T21:27:40.906Z,36.53
2018-05-08T21:30:13.941Z,36.64
2018-05-08T21:32:41.486Z,36.76
2018-05-08T21:35:09.031Z,36.91
2018-05-08T21:37:36.622Z,36.79
2018-05-08T21:40:07.080Z,37.11
2018-05-08T21:42:34.614Z,37.12
2018-05-08T21:45:02.184Z,37.19
2018-05-08T21:47:29.734Z,37.55
2018-05-08T21:49:57.641Z,37.61
2018-05-08T21:52:25.190Z,37.46
2018-05-08T21:54:53.300Z,37.68
2018-05-08T21:57:21.608Z,37.93
2018-05-08T21:59:49.193Z,38.05
2018-05-08T22:02:17.233Z,38.05
2018-05-08T22:04:45.124Z,38.01
2018-05-08T22:07:12.634Z,37.94
2018-05-08T22:09:40.380Z,38.02
2018-05-08T22:12:07.899Z,38.36
2018-05-08T22:14:35.704Z,38.49
2018-05-08T22:17:03.266Z,38.35
2018-05-08T22:19:30.999Z,38.67
2018-05-08T22:21:58.536Z,38.36
2018-05-08T22:24:26.070Z,38.62
2018-05-08T22:26:53.587Z,38.47
2018-05-08T22:29:21.153Z,38.69
2018-05-08T22:31:48.775Z,38.77
2018-05-08T22:34:16.335Z,38.99
2018-05-08T22:36:43.848Z,38.84
2018-05-08T22:39:11.486Z,39.01
2018-05-08T22:41:39.069Z,38.89
2018-05-08T22:44:06.650Z,39.03
2018-05-08T22:46:34.256Z,39.20
2018-05-08T22:49:01.792Z,38.87
2018-05-08T22:51:29.324Z,39.16
2018-05-08T22:53:56.835Z,39.26
2018-05-08T22:56:24.371Z,39.19
2018-05-08T22:58:51.899Z,39.31
2018-05-08T23:01:19.409Z,39.35
2018-05-08T23:03:46.916Z,39.31
2018-05-08T23:06:14.680Z,39.58
2018-05-08T23:08:42.205Z,39.56
2018-05-08T23:11:09.753Z,39.52
2018-05-08T23:13:37.259Z,39.60
2018-05-08T23:16:04.783Z,39.71
2018-05-08T23:18:32.312Z,39.92
2018-05-08T23:20:59.869Z,39.84
2018-05-08T23:23:27.382Z,39.70
2018-05-08T23:25:54.983Z,39.18
2018-05-08T23:28:22.556Z,39.60
2018-05-08T23:30:50.105Z,39.51
2018-05-08T23:33:17.618Z,39.32
2018-05-08T23:35:45.169Z,39.12
2018-05-08T23:38:12.699Z,39.27
2018-05-08T23:40:40.226Z,39.56
2018-05-08T23:43:07.728Z,39.37
2018-05-08T23:45:35.664Z,39.63
2018-05-08T23:48:03.216Z,39.67
2018-05-08T23:50:30.740Z,39.72
2018-05-08T23:52:58.247Z,39.78
2018-05-08T23:55:25.805Z,39.78
2018-05-08T23:57:53.332Z,40.33
